createdAt,value
2022-09-27T00:02:25.438Z,10.33
2022-09-27T00:04:55.820Z,10.25
2022-09-27T00:07:24.368Z,10.24
2022-09-27T00:09:52.972Z,10.24
2022-09-27T00:12:21.488Z,10.22
2022-09-27T00:14:52.278Z,10.18
2022-09-27T00:17:23.024Z,10.16
2022-09-27T00:19:52.529Z,10.24
2022-09-27T00:22:24.436Z,10.21
2022-09-27T00:24:53.054Z,10.15
2022-09-27T00:27:22.511Z,10.16
2022-09-27T00:29:53.394Z,10.19
2022-09-27T00:32:23.362Z,10.18
2022-09-27T00:34:54.315Z,10.22
2022-09-27T00:37:26.160Z,10.16
2022-09-27T00:39:55.840Z,10.16
2022-09-27T00:42:25.061Z,10.16
2022-09-27T00:45:06.571Z,10.15
2022-09-27T00:47:42.592Z,10.15
2022-09-27T00:50:25.934Z,10.16
2022-09-27T00:53:06.048Z,10.16
2022-09-27T00:55:38.405Z,10.20
2022-09-27T00:58:10.380Z,10.18
2022-09-27T01:00:44.017Z,10.24
2022-09-27T01:03:18.246Z,10.24
2022-09-27T01:05:48.255Z,10.22
2022-09-27T01:08:20.152Z,10.23
2022-09-27T01:10:59.989Z,10.13
2022-09-27T01:13:37.076Z,10.10
2022-09-27T01:16:15.150Z,10.09
2022-09-27T01:18:59.477Z,10.09
2022-09-27T01:21:46.622Z,10.13
2022-09-27T01:24:58.739Z,10.13
2022-09-27T01:28:06.882Z,10.13
2022-09-27T01:30:44.522Z,10.16
2022-09-27T01:33:43.169Z,10.21
2022-09-27T01:36:22.968Z,10.23
2022-09-27T01:39:08.376Z,10.25
2022-09-27T01:41:45.379Z,10.28
2022-09-27T01:44:19.195Z,10.33
2022-09-27T01:46:53.617Z,10.30
2022-09-27T01:49:29.979Z,10.37
2022-09-27T01:52:02.415Z,10.34
2022-09-27T01:54:37.351Z,10.38
2022-09-27T01:57:08.646Z,10.40
2022-09-27T01:59:45.723Z,10.37
2022-09-27T02:02:19.222Z,10.40
2022-09-27T02:04:49.621Z,10.40
2022-09-27T02:07:24.194Z,10.40
2022-09-27T02:09:58.303Z,10.42
2022-09-27T02:12:31.288Z,10.40
2022-09-27T02:15:04.420Z,10.43
2022-09-27T02:17:43.586Z,10.42
2022-09-27T02:20:20.578Z,10.46
2022-09-27T02:22:56.599Z,10.42
2022-09-27T02:25:30.305Z,10.47
2022-09-27T02:28:08.132Z,10.46
2022-09-27T02:30:36.811Z,10.45
2022-09-27T02:33:08.020Z,10.47
2022-09-27T02:35:38.258Z,10.46
2022-09-27T02:38:09.413Z,10.39
2022-09-27T02:40:46.041Z,10.41
2022-09-27T02:43:18.246Z,10.33
2022-09-27T02:46:08.036Z,10.39
2022-09-27T02:48:50.997Z,10.38
2022-09-27T02:51:35.777Z,10.38
2022-09-27T02:54:16.542Z,10.45
2022-09-27T02:56:55.327Z,10.43
2022-09-27T02:59:34.663Z,10.46
2022-09-27T03:02:13.761Z,10.46
2022-09-27T03:04:55.497Z,10.49
2022-09-27T03:07:25.213Z,10.61
2022-09-27T03:09:59.946Z,10.54
2022-09-27T03:12:29.846Z,10.59
2022-09-27T03:15:00.925Z,10.59
2022-09-27T03:17:29.665Z,10.62
2022-09-27T03:19:59.592Z,10.61
2022-09-27T03:22:29.437Z,10.65
2022-09-27T03:24:58.997Z,10.65
2022-09-27T03:27:27.547Z,10.72
2022-09-27T03:29:58.824Z,10.65
2022-09-27T03:32:34.961Z,10.63
2022-09-27T03:35:07.179Z,10.62
2022-09-27T03:37:36.065Z,10.66
2022-09-27T03:40:04.844Z,10.72
2022-09-27T03:42:33.276Z,10.75
2022-09-27T03:45:03.020Z,10.71
2022-09-27T03:47:31.579Z,10.77
2022-09-27T03:50:00.124Z,10.71
2022-09-27T03:52:32.843Z,10.71
2022-09-27T03:55:03.840Z,10.72
2022-09-27T03:57:37.230Z,10.69
2022-09-27T04:00:06.055Z,10.71
2022-09-27T04:02:34.795Z,10.67
2022-09-27T04:05:03.513Z,10.69
2022-09-27T04:07:33.739Z,10.71
2022-09-27T04:10:10.788Z,10.68
2022-09-27T04:12:42.163Z,10.72
2022-09-27T04:15:12.881Z,10.67
2022-09-27T04:17:44.147Z,10.66
2022-09-27T04:20:13.221Z,10.76
2022-09-27T04:22:45.917Z,10.73
2022-09-27T04:25:19.198Z,10.68
2022-09-27T04:27:48.905Z,10.71
2022-09-27T04:30:18.791Z,10.69
2022-09-27T04:32:50.333Z,10.66
2022-09-27T04:35:36.369Z,10.67
2022-09-27T04:38:07.872Z,10.65
2022-09-27T04:40:38.012Z,10.61
2022-09-27T04:43:06.625Z,10.64
2022-09-27T04:45:35.674Z,10.59
2022-09-27T04:48:03.986Z,10.67
2022-09-27T04:50:35.945Z,10.62
2022-09-27T04:53:07.268Z,10.62
2022-09-27T04:55:36.765Z,10.65
2022-09-27T04:58:05.878Z,10.63
2022-09-27T05:00:35.476Z,10.61
2022-09-27T05:03:06.299Z,10.63
2022-09-27T05:05:34.609Z,10.65
2022-09-27T05:08:03.512Z,10.57
2022-09-27T05:10:33.331Z,10.57
2022-09-27T05:13:01.689Z,10.59
2022-09-27T05:15:30.561Z,10.56
2022-09-27T05:17:59.994Z,10.59
2022-09-27T05:20:30.043Z,10.56
2022-09-27T05:22:59.831Z,10.54
2022-09-27T05:25:28.564Z,10.52
2022-09-27T05:27:59.241Z,10.49
2022-09-27T05:30:30.857Z,10.51
2022-09-27T05:32:59.558Z,10.50
2022-09-27T05:35:28.267Z,10.50
2022-09-27T05:38:00.288Z,10.42
2022-09-27T05:40:40.964Z,10.50
2022-09-27T05:43:12.017Z,10.40
2022-09-27T05:45:44.400Z,10.43
2022-09-27T05:48:14.860Z,10.39
2022-09-27T05:50:43.485Z,10.42
2022-09-27T05:53:13.704Z,10.40
2022-09-27T05:55:50.099Z,10.41
2022-09-27T05:58:21.165Z,10.41
2022-09-27T06:00:51.684Z,10.33
2022-09-27T06:03:21.260Z,10.29
2022-09-27T06:05:57.025Z,10.25
2022-09-27T06:08:25.486Z,10.26
2022-09-27T06:11:03.699Z,10.25
2022-09-27T06:13:36.551Z,10.24
2022-09-27T06:16:05.884Z,10.16
2022-09-27T06:18:36.912Z,10.10
2022-09-27T06:21:06.986Z,10.11
2022-09-27T06:23:37.664Z,10.05
2022-09-27T06:26:08.517Z,10.08
2022-09-27T06:28:39.118Z,10.09
2022-09-27T06:31:11.994Z,10.06
2022-09-27T06:33:49.513Z,10.07
2022-09-27T06:36:18.515Z,10.08
2022-09-27T06:38:48.547Z,10.10
2022-09-27T06:41:18.119Z,10.09
2022-09-27T06:43:50.050Z,10.09
2022-09-27T06:46:18.453Z,10.12
2022-09-27T06:48:48.528Z,10.11
2022-09-27T06:51:17.198Z,10.12
2022-09-27T06:53:45.738Z,10.12
2022-09-27T06:56:15.306Z,10.17
2022-09-27T06:59:00.900Z,10.17
2022-09-27T07:01:34.094Z,10.20
2022-09-27T07:04:07.842Z,10.18
2022-09-27T07:06:38.903Z,10.21
2022-09-27T07:09:07.533Z,10.17
2022-09-27T07:11:37.965Z,10.22
2022-09-27T07:14:11.059Z,10.29
2022-09-27T07:16:45.317Z,10.29
2022-09-27T07:19:21.438Z,10.28
2022-09-27T07:21:52.940Z,10.32
2022-09-27T07:24:21.436Z,10.46
2022-09-27T07:26:52.171Z,10.37
2022-09-27T07:29:21.737Z,10.36
2022-09-27T07:31:52.737Z,10.37
2022-09-27T07:34:21.188Z,10.37
2022-09-27T07:36:55.359Z,10.42
2022-09-27T07:39:24.588Z,10.40
2022-09-27T07:41:53.300Z,10.43
2022-09-27T07:44:21.977Z,10.45
2022-09-27T07:46:52.041Z,10.48
2022-09-27T07:49:22.089Z,10.50
2022-09-27T07:51:51.614Z,10.52
2022-09-27T07:54:21.329Z,10.58
2022-09-27T07:56:52.170Z,10.63
2022-09-27T07:59:20.914Z,10.67
2022-09-27T08:02:07.349Z,10.71
2022-09-27T08:04:35.835Z,10.81
2022-09-27T08:07:04.260Z,10.84
2022-09-27T08:09:33.057Z,10.91
2022-09-27T08:12:01.658Z,10.95
2022-09-27T08:14:30.385Z,11.03
2022-09-27T08:16:59.185Z,11.05
2022-09-27T08:19:36.600Z,11.09
2022-09-27T08:22:05.361Z,11.14
2022-09-27T08:24:33.811Z,11.18
2022-09-27T08:27:07.026Z,11.19
2022-09-27T08:29:42.131Z,11.29
2022-09-27T08:32:12.654Z,11.38
2022-09-27T08:34:44.121Z,11.30
2022-09-27T08:37:14.588Z,11.37
2022-09-27T08:39:47.969Z,11.44
2022-09-27T08:42:29.505Z,11.49
2022-09-27T08:45:05.830Z,11.56
2022-09-27T08:47:40.525Z,11.62
2022-09-27T08:50:28.119Z,11.64
2022-09-27T08:53:01.880Z,11.68
2022-09-27T08:55:37.924Z,11.64
2022-09-27T08:58:15.004Z,11.59
2022-09-27T09:00:43.671Z,11.64
2022-09-27T09:03:23.138Z,11.63
2022-09-27T09:06:08.649Z,11.64
2022-09-27T09:08:51.081Z,11.66
2022-09-27T09:11:51.333Z,11.66
2022-09-27T09:14:56.568Z,11.71
2022-09-27T09:17:37.876Z,11.75
2022-09-27T09:20:22.077Z,11.76
2022-09-27T09:23:06.799Z,11.80
2022-09-27T09:25:44.512Z,11.80
2022-09-27T09:28:30.433Z,11.81
2022-09-27T09:31:07.579Z,11.91
2022-09-27T09:33:40.660Z,11.88
2022-09-27T09:36:20.340Z,11.95
2022-09-27T09:38:57.685Z,11.96
2022-09-27T09:41:32.165Z,11.94
2022-09-27T09:44:06.301Z,11.98
2022-09-27T09:46:45.384Z,11.94
2022-09-27T09:49:20.253Z,11.99
2022-09-27T09:51:52.801Z,12.10
2022-09-27T09:54:28.872Z,12.15
2022-09-27T09:57:05.152Z,12.18
2022-09-27T09:59:40.315Z,12.28
2022-09-27T10:02:24.735Z,12.23
2022-09-27T10:04:53.376Z,12.17
2022-09-27T10:07:25.658Z,12.08
2022-09-27T10:10:01.104Z,12.13
2022-09-27T10:12:30.858Z,12.12
2022-09-27T10:15:02.982Z,12.10
2022-09-27T10:17:40.641Z,12.07
2022-09-27T10:20:17.119Z,12.11
2022-09-27T10:22:54.806Z,12.14
2022-09-27T10:25:25.819Z,12.16
2022-09-27T10:27:57.177Z,12.18
2022-09-27T10:30:29.557Z,12.16
2022-09-27T10:33:00.941Z,12.17
2022-09-27T10:35:38.199Z,12.25
2022-09-27T10:38:27.306Z,12.26
2022-09-27T10:41:00.129Z,12.20
2022-09-27T10:43:33.782Z,12.21
2022-09-27T10:46:17.743Z,12.22
2022-09-27T10:48:46.400Z,12.16
2022-09-27T10:51:28.640Z,12.05
2022-09-27T10:54:00.824Z,12.03
2022-09-27T10:56:33.388Z,12.10
2022-09-27T10:59:04.297Z,12.14
2022-09-27T11:01:42.611Z,12.27
2022-09-27T11:04:21.609Z,12.26
2022-09-27T11:06:50.723Z,12.30
2022-09-27T11:09:24.479Z,12.26
2022-09-27T11:12:10.433Z,12.21
2022-09-27T11:14:41.674Z,12.29
2022-09-27T11:17:22.269Z,12.32
2022-09-27T11:20:29.116Z,12.38
2022-09-27T11:23:30.009Z,12.45
2022-09-27T11:26:11.447Z,12.48
2022-09-27T11:28:54.090Z,12.37
2022-09-27T11:31:36.682Z,12.38
2022-09-27T11:34:37.831Z,12.36
2022-09-27T11:37:18.458Z,12.41
2022-09-27T11:40:03.006Z,12.35
2022-09-27T11:43:00.055Z,12.33
2022-09-27T11:46:14.219Z,12.51
2022-09-27T11:48:56.553Z,12.56
2022-09-27T11:51:37.593Z,12.72
2022-09-27T11:54:31.178Z,12.74
2022-09-27T11:57:05.797Z,12.71
2022-09-27T12:00:09.174Z,12.76
2022-09-27T12:02:58.601Z,12.62
2022-09-27T12:05:38.056Z,12.58
2022-09-27T12:08:22.885Z,12.65
2022-09-27T12:10:56.423Z,12.65
2022-09-27T12:13:36.097Z,12.65
2022-09-27T12:16:05.966Z,12.70
2022-09-27T12:18:41.565Z,12.67
2022-09-27T12:21:13.288Z,12.85
2022-09-27T12:23:45.962Z,12.84
2022-09-27T12:26:21.750Z,12.89
2022-09-27T12:28:54.359Z,12.80
2022-09-27T12:31:41.186Z,12.72
2022-09-27T12:34:20.547Z,12.68
2022-09-27T12:36:58.186Z,12.64
2022-09-27T12:39:35.161Z,12.60
2022-09-27T12:45:53.692Z,12.43
2022-09-27T12:48:41.100Z,12.56
2022-09-27T12:51:46.510Z,12.65
2022-09-27T12:54:40.654Z,12.71
2022-09-27T12:57:39.751Z,12.67
2022-09-27T13:00:34.443Z,12.79
2022-09-27T13:04:08.234Z,12.91
2022-09-27T13:10:08.473Z,12.71
2022-09-27T13:12:47.791Z,12.59
2022-09-27T13:15:23.113Z,12.50
2022-09-27T13:17:57.073Z,12.64
2022-09-27T13:20:51.357Z,12.49
2022-09-27T13:24:02.518Z,12.42
2022-09-27T13:26:52.346Z,12.41
2022-09-27T13:29:37.280Z,12.39
2022-09-27T13:32:20.948Z,12.36
2022-09-27T13:34:55.055Z,12.33
2022-09-27T13:37:54.860Z,12.38
2022-09-27T13:40:50.242Z,12.36
2022-09-27T13:43:49.269Z,12.32
2022-09-27T13:46:22.122Z,12.27
2022-09-27T13:48:58.330Z,12.17
2022-09-27T13:51:38.781Z,12.23
2022-09-27T13:54:12.809Z,12.32
2022-09-27T13:56:58.551Z,12.38
2022-09-27T13:59:34.914Z,12.29
2022-09-27T14:02:29.375Z,12.31
2022-09-27T14:05:04.822Z,12.28
2022-09-27T14:07:53.718Z,12.34
2022-09-27T14:10:24.607Z,12.43
2022-09-27T14:13:04.897Z,12.39
2022-09-27T14:15:34.517Z,12.46
2022-09-27T14:18:26.696Z,12.51
2022-09-27T14:20:55.891Z,12.57
2022-09-27T14:23:58.274Z,12.58
2022-09-27T14:26:33.316Z,12.56
2022-09-27T14:29:31.602Z,12.58
2022-09-27T14:32:20.547Z,12.62
2022-09-27T14:35:07.974Z,12.62
2022-09-27T14:37:38.904Z,12.56
2022-09-27T14:40:24.198Z,12.55
2022-09-27T14:43:05.517Z,12.48
2022-09-27T14:46:04.598Z,12.49
2022-09-27T14:48:36.918Z,12.63
2022-09-27T14:51:20.097Z,12.58
2022-09-27T14:53:50.565Z,12.69
2022-09-27T14:56:23.078Z,12.78
2022-09-27T14:58:57.235Z,12.71
2022-09-27T15:01:27.889Z,12.60
2022-09-27T15:04:08.675Z,12.42
2022-09-27T15:06:55.921Z,12.40
2022-09-27T15:09:32.355Z,12.39
2022-09-27T15:12:09.291Z,12.34
2022-09-27T15:14:41.525Z,12.34
2022-09-27T15:17:21.355Z,12.19
2022-09-27T15:20:25.225Z,12.24
2022-09-27T15:22:53.836Z,12.31
2022-09-27T15:25:34.571Z,12.32
2022-09-27T15:28:06.198Z,12.47
2022-09-27T15:30:39.983Z,12.43
2022-09-27T15:33:22.391Z,12.46
2022-09-27T15:35:53.026Z,12.34
2022-09-27T15:38:31.589Z,12.24
2022-09-27T15:41:09.677Z,12.23
2022-09-27T15:43:41.802Z,12.21
2022-09-27T15:46:39.093Z,12.13
2022-09-27T15:49:34.856Z,12.11
2022-09-27T15:52:05.490Z,12.12
2022-09-27T15:54:35.942Z,12.22
2022-09-27T15:57:06.871Z,12.21
2022-09-27T15:59:37.172Z,12.14
2022-09-27T16:02:19.721Z,12.12
2022-09-27T16:04:49.689Z,12.04
2022-09-27T16:07:17.983Z,12.05
2022-09-27T16:09:49.639Z,12.05
2022-09-27T16:12:18.266Z,12.05
2022-09-27T16:14:46.787Z,11.90
2022-09-27T16:17:16.150Z,11.85
2022-09-27T16:19:44.795Z,11.85
2022-09-27T16:22:14.963Z,11.76
2022-09-27T16:24:43.276Z,11.68
2022-09-27T16:27:12.019Z,11.60
2022-09-27T16:29:44.362Z,11.51
2022-09-27T16:32:12.955Z,11.54
2022-09-27T16:34:41.573Z,11.41
2022-09-27T16:37:10.508Z,11.45
2022-09-27T16:39:40.975Z,11.35
2022-09-27T16:42:09.907Z,11.33
2022-09-27T16:44:38.294Z,11.31
2022-09-27T16:47:07.357Z,11.29
2022-09-27T16:49:53.706Z,11.29
2022-09-27T16:52:22.003Z,11.22
2022-09-27T16:54:52.132Z,11.19
2022-09-27T16:57:20.681Z,11.29
2022-09-27T16:59:50.048Z,11.23
2022-09-27T17:02:19.967Z,11.22
2022-09-27T17:04:48.566Z,11.28
2022-09-27T17:07:17.113Z,11.28
2022-09-27T17:09:45.763Z,11.24
2022-09-27T17:12:16.711Z,11.19
2022-09-27T17:14:45.538Z,11.25
2022-09-27T17:17:14.087Z,11.20
2022-09-27T17:19:42.968Z,11.28
2022-09-27T17:22:11.913Z,11.20
2022-09-27T17:24:40.494Z,11.16
2022-09-27T17:27:09.494Z,11.16
2022-09-27T17:29:40.341Z,11.15
2022-09-27T17:32:09.150Z,11.11
2022-09-27T17:34:43.905Z,11.10
2022-09-27T17:37:13.474Z,11.08
2022-09-27T17:39:42.304Z,11.09
2022-09-27T17:42:12.201Z,11.08
2022-09-27T17:44:42.528Z,11.05
2022-09-27T17:47:28.728Z,11.04
2022-09-27T17:50:14.437Z,11.02
2022-09-27T17:52:43.588Z,11.03
2022-09-27T17:55:12.213Z,11.02
2022-09-27T17:57:40.882Z,10.96
2022-09-27T18:00:12.890Z,10.94
2022-09-27T18:02:42.204Z,10.89
2022-09-27T18:05:11.104Z,10.87
2022-09-27T18:07:39.556Z,10.83
2022-09-27T18:10:09.555Z,10.81
2022-09-27T18:12:39.334Z,10.80
2022-09-27T18:15:09.185Z,10.79
2022-09-27T18:17:39.176Z,10.82
2022-09-27T18:20:08.160Z,10.79
2022-09-27T18:22:39.674Z,10.84
2022-09-27T18:25:09.120Z,10.81
2022-09-27T18:27:38.672Z,10.77
2022-09-27T18:30:09.982Z,10.80
2022-09-27T18:32:40.429Z,10.79
2022-09-27T18:35:09.223Z,10.78
2022-09-27T18:37:38.997Z,10.79
2022-09-27T18:40:08.554Z,10.78
2022-09-27T18:42:37.054Z,10.73
2022-09-27T18:45:06.516Z,10.76
2022-09-27T18:47:35.106Z,10.74
2022-09-27T18:50:05.724Z,10.72
2022-09-27T18:52:36.585Z,10.75
2022-09-27T18:55:06.988Z,10.73
2022-09-27T18:57:37.652Z,10.74
2022-09-27T19:00:08.916Z,10.76
2022-09-27T19:02:37.335Z,10.74
2022-09-27T19:05:09.138Z,10.75
2022-09-27T19:07:40.491Z,10.69
2022-09-27T19:10:10.384Z,10.69
2022-09-27T19:12:40.875Z,10.68
2022-09-27T19:15:11.713Z,10.67
2022-09-27T19:17:40.626Z,10.70
2022-09-27T19:20:12.707Z,10.67
2022-09-27T19:22:41.351Z,10.65
2022-09-27T19:25:11.895Z,10.63
2022-09-27T19:27:43.306Z,10.52
2022-09-27T19:30:13.913Z,10.49
2022-09-27T19:32:42.724Z,10.46
2022-09-27T19:35:14.945Z,10.48
2022-09-27T19:37:43.730Z,10.47
2022-09-27T19:40:12.530Z,10.47
2022-09-27T19:42:41.397Z,10.47
2022-09-27T19:45:12.818Z,10.52
2022-09-27T19:47:41.613Z,10.43
2022-09-27T19:50:11.235Z,10.39
2022-09-27T19:52:41.561Z,10.38
2022-09-27T19:55:11.441Z,10.34
2022-09-27T19:57:40.162Z,10.30
2022-09-27T20:00:10.330Z,10.27
2022-09-27T20:02:51.995Z,10.18
2022-09-27T20:05:22.046Z,10.18
2022-09-27T20:07:54.215Z,10.11
2022-09-27T20:10:22.670Z,10.07
2022-09-27T20:12:52.083Z,10.03
2022-09-27T20:15:21.421Z,9.99
2022-09-27T20:17:51.261Z,9.97
2022-09-27T20:20:20.855Z,9.93
2022-09-27T20:22:52.084Z,9.89
2022-09-27T20:25:20.746Z,9.85
2022-09-27T20:27:50.074Z,9.79
2022-09-27T20:30:19.013Z,9.76
2022-09-27T20:33:07.864Z,9.79
2022-09-27T20:35:37.350Z,9.74
2022-09-27T20:38:07.571Z,9.68
2022-09-27T20:40:36.563Z,9.67
2022-09-27T20:43:05.328Z,9.62
2022-09-27T20:45:35.904Z,9.64
2022-09-27T20:48:04.775Z,9.60
2022-09-27T20:50:34.007Z,9.58
2022-09-27T20:53:03.469Z,9.53
2022-09-27T20:55:36.015Z,9.52
2022-09-27T20:58:04.686Z,9.48
2022-09-27T21:00:37.258Z,9.46
2022-09-27T21:03:08.477Z,9.46
2022-09-27T21:05:37.090Z,9.45
2022-09-27T21:08:06.618Z,9.43
2022-09-27T21:10:36.745Z,9.38
2022-09-27T21:13:05.739Z,9.38
2022-09-27T21:15:34.550Z,9.40
2022-09-27T21:18:02.962Z,9.39
2022-09-27T21:20:32.012Z,9.38
2022-09-27T21:23:02.203Z,9.38
2022-09-27T21:25:30.632Z,9.36
2022-09-27T21:28:01.901Z,9.36
2022-09-27T21:30:30.385Z,9.37
2022-09-27T21:32:59.603Z,9.37
2022-09-27T21:35:28.997Z,9.38
2022-09-27T21:37:58.503Z,9.40
2022-09-27T21:40:28.183Z,9.44
2022-09-27T21:42:57.867Z,9.43
2022-09-27T21:45:34.888Z,9.41
2022-09-27T21:48:03.584Z,9.42
2022-09-27T21:50:32.920Z,9.37
2022-09-27T21:53:01.251Z,9.35
2022-09-27T21:55:31.138Z,9.31
2022-09-27T21:57:59.643Z,9.32
2022-09-27T22:00:28.332Z,9.33
2022-09-27T22:03:00.285Z,9.34
2022-09-27T22:05:29.948Z,9.36
2022-09-27T22:08:13.580Z,9.31
2022-09-27T22:10:42.331Z,9.34
2022-09-27T22:13:11.342Z,9.32
2022-09-27T22:15:41.678Z,9.29
2022-09-27T22:18:13.300Z,9.32
2022-09-27T22:20:43.585Z,9.35
2022-09-27T22:23:12.331Z,9.36
2022-09-27T22:25:41.899Z,9.34
2022-09-27T22:28:10.701Z,9.26
2022-09-27T22:30:40.109Z,9.27
2022-09-27T22:33:08.598Z,9.20
2022-09-27T22:35:47.675Z,9.16
2022-09-27T22:38:17.350Z,9.11
2022-09-27T22:40:54.824Z,9.04
2022-09-27T22:43:27.008Z,8.99
2022-09-27T22:45:55.688Z,8.94
2022-09-27T22:48:25.063Z,8.94
2022-09-27T22:50:58.439Z,8.86
2022-09-27T22:53:28.002Z,8.84
2022-09-27T22:56:04.808Z,8.84
2022-09-27T22:58:36.030Z,8.79
2022-09-27T23:01:09.916Z,8.77
2022-09-27T23:03:38.624Z,8.75
2022-09-27T23:06:09.827Z,8.72
2022-09-27T23:08:39.784Z,8.71
2022-09-27T23:11:10.614Z,8.69
2022-09-27T23:13:41.943Z,8.66
2022-09-27T23:16:12.760Z,8.61
2022-09-27T23:18:42.294Z,8.58
2022-09-27T23:21:15.980Z,8.64
2022-09-27T23:23:46.688Z,8.58
2022-09-27T23:26:17.929Z,8.55
2022-09-27T23:28:46.733Z,8.52
2022-09-27T23:31:18.967Z,8.51
2022-09-27T23:33:49.550Z,8.50
2022-09-27T23:36:22.751Z,8.49
2022-09-27T23:38:51.632Z,8.46
2022-09-27T23:41:21.392Z,8.44
2022-09-27T23:43:51.359Z,8.42
2022-09-27T23:46:26.014Z,8.45
2022-09-27T23:49:01.309Z,8.38
2022-09-27T23:51:31.221Z,8.37
2022-09-27T23:54:01.138Z,8.32
2022-09-27T23:56:29.612Z,8.32
2022-09-27T23:59:01.244Z,8.32
